Time;durP1;ratioP1;P1;durP2;ratioP2;P2;SDS_P1;SDS_P2;PMS_P1;PMS_P2;Temp;Humidity;BMP_temperature;BMP_pressure;BME280_temperature;BME280_humidity;BME280_pressure;Samples;Min_cycle;Max_cycle;Signal;HPM_P1;HPM_P2
2023/06/20 00:01:36;;;;;;;;;;;10.40;91.30;;;;;;5090831;28;19935;-61
2023/06/20 00:04:03;;;;;;;;;;;10.60;91.50;;;;;;5091028;28;19912;-62
2023/06/20 00:06:29;;;;;;;;;;;10.60;91.20;;;;;;5096840;28;19917;-63
2023/06/20 00:08:56;;;;;;;;;;;10.70;90.80;;;;;;5084269;28;19919;-61
2023/06/20 00:11:23;;;;;;;;;;;10.70;90.90;;;;;;5074805;28;19973;-63
2023/06/20 00:13:50;;;;;;;;;;;10.80;90.60;;;;;;5092396;28;19912;-63
2023/06/20 00:16:20;;;;;;;;;;;10.90;90.60;;;;;;5084487;28;19960;-63
2023/06/20 00:18:53;;;;;;;;;;;10.90;90.60;;;;;;5079919;28;20360;-64
2023/06/20 00:21:21;;;;;;;;;;;11.00;90.20;;;;;;5091954;28;19916;-62
2023/06/20 00:23:48;;;;;;;;;;;11.20;90.10;;;;;;5091580;28;19920;-63
2023/06/20 00:26:14;;;;;;;;;;;11.10;89.80;;;;;;5080548;28;19950;-63
2023/06/20 00:28:41;;;;;;;;;;;11.20;89.50;;;;;;5088501;28;19912;-64
2023/06/20 00:31:08;;;;;;;;;;;11.30;88.30;;;;;;5093946;28;20399;-63
2023/06/20 00:33:36;;;;;;;;;;;11.30;88.40;;;;;;5072675;28;20284;-62
2023/06/20 00:36:03;;;;;;;;;;;11.40;89.20;;;;;;5093787;28;20421;-62
2023/06/20 00:38:30;;;;;;;;;;;11.40;89.10;;;;;;5112789;28;19908;-62
2023/06/20 00:40:56;;;;;;;;;;;11.50;88.50;;;;;;5113602;28;19915;-64
2023/06/20 00:43:23;;;;;;;;;;;11.60;87.90;;;;;;5077867;28;20000;-62
2023/06/20 00:45:50;;;;;;;;;;;11.60;88.20;;;;;;5092656;28;19912;-61
2023/06/20 00:48:20;;;;;;;;;;;11.60;88.10;;;;;;5073833;28;20469;-61
2023/06/20 00:50:47;;;;;;;;;;;11.60;87.50;;;;;;5072626;28;19915;-61
2023/06/20 00:53:14;;;;;;;;;;;11.70;88.50;;;;;;5075239;28;19916;-62
2023/06/20 00:55:40;;;;;;;;;;;11.80;89.60;;;;;;5091009;28;20326;-60
2023/06/20 00:58:07;;;;;;;;;;;11.90;88.20;;;;;;5092028;28;19950;-63
2023/06/20 01:00:34;;;;;;;;;;;12.00;87.20;;;;;;5092757;28;19971;-63
2023/06/20 01:03:13;;;;;;;;;;;12.00;86.60;;;;;;5077098;28;19912;-60
2023/06/20 01:05:46;;;;;;;;;;;12.10;87.60;;;;;;5072297;28;19912;-64
2023/06/20 01:08:16;;;;;;;;;;;12.10;88.30;;;;;;5071914;28;19909;-61
2023/06/20 01:10:45;;;;;;;;;;;12.20;84.80;;;;;;5085535;28;19908;-61
2023/06/20 01:13:30;;;;;;;;;;;12.20;84.70;;;;;;5092057;28;20277;-61
2023/06/20 01:16:04;;;;;;;;;;;12.20;86.00;;;;;;5091473;28;20253;-62
2023/06/20 01:18:46;;;;;;;;;;;12.30;84.80;;;;;;5091506;28;19912;-62
2023/06/20 01:21:20;;;;;;;;;;;12.40;84.70;;;;;;5091896;28;19908;-63
2023/06/20 01:23:56;;;;;;;;;;;12.50;86.30;;;;;;5072372;28;19909;-63
2023/06/20 01:26:34;;;;;;;;;;;12.60;84.10;;;;;;5072253;28;19924;-63
2023/06/20 01:29:14;;;;;;;;;;;12.70;84.50;;;;;;5072437;28;19913;-63
2023/06/20 01:31:43;;;;;;;;;;;12.80;84.40;;;;;;5087085;28;19913;-62
2023/06/20 01:34:14;;;;;;;;;;;12.80;82.50;;;;;;5071701;28;20273;-61
2023/06/20 01:36:42;;;;;;;;;;;12.90;83.10;;;;;;5058945;28;20441;-62
2023/06/20 01:39:12;;;;;;;;;;;13.00;82.90;;;;;;5091311;28;19913;-63
2023/06/20 01:41:41;;;;;;;;;;;13.10;82.30;;;;;;5088695;28;20007;-62
2023/06/20 01:44:11;;;;;;;;;;;13.10;81.30;;;;;;5090677;28;19916;-61
2023/06/20 01:46:37;;;;;;;;;;;13.30;82.10;;;;;;5091869;28;20418;-63
2023/06/20 01:49:05;;;;;;;;;;;13.40;82.40;;;;;;5091107;28;19967;-63
2023/06/20 01:51:33;;;;;;;;;;;13.50;80.60;;;;;;5091116;28;19977;-62
2023/06/20 01:54:02;;;;;;;;;;;13.50;81.10;;;;;;5073581;28;20445;-61
2023/06/20 01:56:29;;;;;;;;;;;13.70;80.70;;;;;;5092017;28;20015;-63
2023/06/20 01:58:56;;;;;;;;;;;13.90;82.10;;;;;;5091489;28;19912;-61
2023/06/20 02:01:23;;;;;;;;;;;14.00;79.70;;;;;;5090820;28;19951;-63
2023/06/20 02:03:50;;;;;;;;;;;14.00;79.00;;;;;;5084395;28;19912;-63
2023/06/20 02:06:17;;;;;;;;;;;14.10;78.70;;;;;;5073787;28;20261;-64
2023/06/20 02:08:44;;;;;;;;;;;14.20;79.70;;;;;;5085379;28;19913;-63
2023/06/20 02:11:11;;;;;;;;;;;14.10;78.90;;;;;;5071182;28;19908;-62
2023/06/20 02:13:38;;;;;;;;;;;14.20;78.60;;;;;;5090631;28;19912;-63
2023/06/20 02:16:07;;;;;;;;;;;14.10;77.00;;;;;;5091871;28;19908;-63
2023/06/20 02:18:34;;;;;;;;;;;14.10;78.80;;;;;;5052993;28;20385;-64
2023/06/20 02:21:04;;;;;;;;;;;14.20;78.40;;;;;;5071285;28;19912;-63
2023/06/20 02:23:32;;;;;;;;;;;14.20;78.40;;;;;;5091314;28;19919;-61
2023/06/20 02:26:12;;;;;;;;;;;14.20;77.30;;;;;;5081891;28;19923;-62
2023/06/20 02:28:40;;;;;;;;;;;14.30;78.00;;;;;;5083929;28;20322;-62
2023/06/20 02:31:08;;;;;;;;;;;14.50;77.70;;;;;;5093146;28;19908;-62
2023/06/20 02:33:36;;;;;;;;;;;14.80;76.90;;;;;;5086707;28;20273;-62
2023/06/20 02:36:04;;;;;;;;;;;15.00;74.70;;;;;;5093297;28;19916;-62
2023/06/20 02:38:31;;;;;;;;;;;15.30;73.10;;;;;;5094671;28;20357;-61
2023/06/20 02:40:58;;;;;;;;;;;15.20;71.40;;;;;;5094643;28;19916;-62
2023/06/20 02:43:24;;;;;;;;;;;15.10;71.60;;;;;;5094213;28;19927;-62
2023/06/20 02:45:55;;;;;;;;;;;15.10;72.10;;;;;;5095114;28;19916;-63
2023/06/20 02:48:32;;;;;;;;;;;15.00;73.50;;;;;;5076202;28;19954;-62
2023/06/20 02:51:06;;;;;;;;;;;15.00;74.20;;;;;;5094578;28;19915;-64
2023/06/20 02:53:35;;;;;;;;;;;15.00;74.40;;;;;;5081093;28;19915;-63
2023/06/20 02:56:05;;;;;;;;;;;15.10;74.90;;;;;;5093826;28;19995;-61
2023/06/20 02:58:33;;;;;;;;;;;15.60;73.60;;;;;;5093449;28;19916;-62
2023/06/20 03:01:00;;;;;;;;;;;16.00;71.90;;;;;;5094575;28;19908;-65
2023/06/20 03:03:29;;;;;;;;;;;16.60;71.40;;;;;;5094115;28;19916;-63
2023/06/20 03:05:59;;;;;;;;;;;17.10;70.50;;;;;;5085589;28;19974;-62
2023/06/20 03:08:27;;;;;;;;;;;17.70;69.10;;;;;;5094682;28;20041;-63
2023/06/20 03:10:55;;;;;;;;;;;17.90;68.80;;;;;;5094187;28;19918;-61
2023/06/20 03:13:21;;;;;;;;;;;17.80;67.90;;;;;;5093822;28;19922;-64
2023/06/20 03:15:51;;;;;;;;;;;17.50;68.30;;;;;;5093308;28;19923;-63
2023/06/20 03:18:18;;;;;;;;;;;17.30;69.20;;;;;;5092776;28;19916;-62
2023/06/20 03:20:46;;;;;;;;;;;17.30;69.30;;;;;;5094455;28;19908;-64
2023/06/20 03:23:12;;;;;;;;;;;17.60;67.30;;;;;;5080600;28;19961;-63
2023/06/20 03:25:39;;;;;;;;;;;18.10;67.40;;;;;;5092990;28;20396;-64
2023/06/20 03:28:06;;;;;;;;;;;19.00;65.10;;;;;;5093223;28;20416;-64
2023/06/20 03:30:33;;;;;;;;;;;19.30;64.50;;;;;;5093509;28;19915;-62
2023/06/20 03:33:00;;;;;;;;;;;19.50;64.30;;;;;;5083962;28;19912;-64
2023/06/20 03:35:26;;;;;;;;;;;20.40;63.50;;;;;;5073305;28;19999;-63
2023/06/20 03:37:53;;;;;;;;;;;22.00;61.10;;;;;;5074558;28;19999;-63
2023/06/20 03:40:20;;;;;;;;;;;23.10;59.00;;;;;;5074425;28;20443;-62
2023/06/20 03:42:46;;;;;;;;;;;24.40;57.00;;;;;;5074452;28;19921;-64
2023/06/20 03:45:13;;;;;;;;;;;25.20;55.70;;;;;;5074193;28;19916;-63
2023/06/20 03:47:39;;;;;;;;;;;25.90;55.00;;;;;;5074213;28;19921;-64
2023/06/20 03:50:06;;;;;;;;;;;26.30;54.80;;;;;;5056578;28;19912;-64
2023/06/20 03:52:33;;;;;;;;;;;26.90;53.70;;;;;;5082071;28;20610;-63
2023/06/20 03:55:00;;;;;;;;;;;27.50;53.30;;;;;;5094406;28;19905;-64
2023/06/20 03:57:26;;;;;;;;;;;27.90;52.70;;;;;;5094319;28;20274;-63
2023/06/20 03:59:53;;;;;;;;;;;27.80;52.30;;;;;;5093483;28;20361;-65
2023/06/20 04:02:19;;;;;;;;;;;27.80;51.40;;;;;;5074063;28;19966;-63
2023/06/20 04:04:49;;;;;;;;;;;27.00;52.20;;;;;;5076924;28;19920;-63
2023/06/20 04:07:19;;;;;;;;;;;26.70;52.40;;;;;;5094060;28;19923;-65
2023/06/20 04:09:46;;;;;;;;;;;25.50;53.00;;;;;;5094111;28;19912;-65
2023/06/20 04:12:13;;;;;;;;;;;24.20;54.30;;;;;;5086366;28;19999;-65
2023/06/20 04:14:40;;;;;;;;;;;22.70;56.50;;;;;;5073905;28;19908;-63
2023/06/20 04:17:06;;;;;;;;;;;21.40;58.60;;;;;;5073845;28;19966;-63
2023/06/20 04:19:33;;;;;;;;;;;20.20;61.00;;;;;;5073544;28;20015;-64
2023/06/20 04:22:00;;;;;;;;;;;19.30;63.30;;;;;;5082885;28;20348;-64
2023/06/20 04:24:27;;;;;;;;;;;18.40;64.90;;;;;;5093104;28;19909;-64
2023/06/20 04:26:54;;;;;;;;;;;17.70;66.40;;;;;;5093679;28;19923;-66
2023/06/20 04:29:21;;;;;;;;;;;17.20;67.20;;;;;;5062092;28;20277;-64
2023/06/20 04:31:49;;;;;;;;;;;16.90;68.50;;;;;;5073800;28;19974;-64
2023/06/20 04:34:15;;;;;;;;;;;16.60;69.10;;;;;;5073577;28;19913;-64
2023/06/20 04:36:42;;;;;;;;;;;16.40;69.60;;;;;;5074096;28;19913;-65
2023/06/20 04:39:09;;;;;;;;;;;16.30;69.90;;;;;;5090641;28;19912;-66
2023/06/20 04:41:35;;;;;;;;;;;16.20;70.00;;;;;;5091373;28;19912;-65
2023/06/20 04:44:02;;;;;;;;;;;16.00;69.20;;;;;;5078143;28;19920;-64
2023/06/20 04:46:29;;;;;;;;;;;16.00;70.10;;;;;;5081040;28;19920;-63
2023/06/20 04:48:55;;;;;;;;;;;15.90;70.70;;;;;;5087556;28;19916;-62
2023/06/20 04:51:22;;;;;;;;;;;15.90;71.30;;;;;;5070753;28;19991;-62
2023/06/20 04:53:49;;;;;;;;;;;16.00;71.20;;;;;;5083422;28;19912;-64
2023/06/20 04:56:16;;;;;;;;;;;16.10;71.70;;;;;;5086933;28;19967;-63
2023/06/20 04:58:45;;;;;;;;;;;16.00;71.20;;;;;;5088102;28;19908;-63
2023/06/20 05:01:14;;;;;;;;;;;16.00;70.60;;;;;;5070015;28;20337;-62
2023/06/20 05:03:44;;;;;;;;;;;16.10;69.80;;;;;;5091686;28;20369;-63
2023/06/20 05:06:16;;;;;;;;;;;16.30;70.50;;;;;;5082180;28;19923;-62
2023/06/20 05:08:44;;;;;;;;;;;16.30;69.60;;;;;;5094262;28;19920;-64
2023/06/20 05:11:11;;;;;;;;;;;16.30;69.40;;;;;;5090319;28;19912;-63
2023/06/20 05:13:38;;;;;;;;;;;16.30;70.50;;;;;;5091208;28;19912;-62
2023/06/20 05:16:05;;;;;;;;;;;16.40;69.50;;;;;;5092008;28;19912;-63
2023/06/20 05:18:32;;;;;;;;;;;16.50;69.00;;;;;;5092324;28;19908;-63
2023/06/20 05:20:59;;;;;;;;;;;16.50;69.20;;;;;;5088771;28;19916;-61
2023/06/20 05:23:26;;;;;;;;;;;16.40;68.50;;;;;;5088832;28;20383;-62
2023/06/20 05:25:52;;;;;;;;;;;16.20;68.40;;;;;;5091355;28;19964;-63
2023/06/20 05:28:19;;;;;;;;;;;16.10;69.10;;;;;;5081486;28;20076;-63
2023/06/20 05:30:46;;;;;;;;;;;16.10;70.00;;;;;;5104120;28;20021;-64
2023/06/20 05:33:12;;;;;;;;;;;16.10;69.20;;;;;;5090999;28;20272;-63
2023/06/20 05:35:41;;;;;;;;;;;16.20;70.60;;;;;;5090848;28;19912;-62
2023/06/20 05:38:07;;;;;;;;;;;16.20;69.90;;;;;;5076189;28;19909;-62
2023/06/20 05:40:34;;;;;;;;;;;16.30;70.40;;;;;;5083265;28;19916;-63
2023/06/20 05:43:01;;;;;;;;;;;16.50;71.00;;;;;;5071122;28;19924;-64
2023/06/20 05:45:27;;;;;;;;;;;16.70;69.20;;;;;;5084324;28;19917;-62
2023/06/20 05:47:54;;;;;;;;;;;16.90;69.70;;;;;;5088052;28;20018;-61
2023/06/20 05:50:22;;;;;;;;;;;16.90;69.10;;;;;;5091287;28;19916;-64
2023/06/20 05:52:49;;;;;;;;;;;16.90;68.80;;;;;;5087449;28;19916;-61
2023/06/20 05:55:15;;;;;;;;;;;16.80;68.90;;;;;;5078949;28;19913;-63
2023/06/20 05:57:42;;;;;;;;;;;17.00;68.70;;;;;;5070138;28;19913;-64
2023/06/20 06:00:12;;;;;;;;;;;17.20;68.60;;;;;;5090532;28;19912;-63
2023/06/20 06:02:39;;;;;;;;;;;17.50;68.80;;;;;;5095500;28;19977;-63
2023/06/20 06:05:06;;;;;;;;;;;18.00;67.10;;;;;;5095979;28;19912;-63
2023/06/20 06:07:33;;;;;;;;;;;18.60;66.40;;;;;;5095734;28;19916;-62
2023/06/20 06:10:00;;;;;;;;;;;18.70;65.10;;;;;;5091421;28;19926;-62
2023/06/20 06:12:26;;;;;;;;;;;18.80;65.60;;;;;;5092179;28;19912;-62
2023/06/20 06:14:53;;;;;;;;;;;18.60;65.60;;;;;;5098127;28;19912;-63
2023/06/20 06:17:19;;;;;;;;;;;18.10;67.30;;;;;;5097172;28;19909;-64
2023/06/20 06:19:46;;;;;;;;;;;17.70;68.20;;;;;;5074658;28;19966;-63
2023/06/20 06:22:13;;;;;;;;;;;17.20;68.80;;;;;;5073150;28;20012;-63
2023/06/20 06:24:39;;;;;;;;;;;16.70;69.80;;;;;;5076174;28;19918;-63
2023/06/20 06:27:07;;;;;;;;;;;16.20;70.90;;;;;;5089128;28;19920;-65
2023/06/20 06:29:33;;;;;;;;;;;15.90;71.10;;;;;;5076111;28;19908;-65
2023/06/20 06:32:00;;;;;;;;;;;15.60;72.50;;;;;;5074803;28;19909;-62
2023/06/20 06:34:27;;;;;;;;;;;15.30;73.90;;;;;;5075043;28;19908;-63
2023/06/20 06:36:54;;;;;;;;;;;15.00;74.40;;;;;;5090372;28;19916;-63
2023/06/20 06:39:20;;;;;;;;;;;14.80;76.00;;;;;;5075237;28;20421;-62
2023/06/20 06:41:49;;;;;;;;;;;14.50;75.60;;;;;;5074703;28;19928;-63
2023/06/20 06:44:17;;;;;;;;;;;14.40;76.50;;;;;;5074635;28;19908;-64
2023/06/20 06:46:44;;;;;;;;;;;14.20;77.30;;;;;;5089259;28;20487;-64
2023/06/20 06:49:11;;;;;;;;;;;14.00;78.00;;;;;;5074856;28;19915;-64
2023/06/20 06:51:39;;;;;;;;;;;13.80;78.40;;;;;;5091228;28;19912;-64
2023/06/20 06:54:05;;;;;;;;;;;13.70;78.90;;;;;;5095173;28;19912;-64
2023/06/20 06:56:32;;;;;;;;;;;13.60;79.40;;;;;;5093090;28;19916;-62
2023/06/20 06:59:00;;;;;;;;;;;13.40;80.50;;;;;;5074672;28;20015;-64
2023/06/20 07:01:30;;;;;;;;;;;13.30;80.70;;;;;;5089612;28;19981;-63
2023/06/20 07:03:57;;;;;;;;;;;13.10;81.90;;;;;;5094577;28;19956;-64
2023/06/20 07:06:23;;;;;;;;;;;13.00;82.40;;;;;;5093705;28;19927;-64
2023/06/20 07:08:52;;;;;;;;;;;12.90;83.00;;;;;;5074184;28;19909;-64
2023/06/20 07:11:19;;;;;;;;;;;12.90;83.60;;;;;;5087804;28;19974;-63
2023/06/20 07:13:45;;;;;;;;;;;12.70;84.10;;;;;;5094619;28;19912;-63
2023/06/20 07:16:12;;;;;;;;;;;12.60;84.50;;;;;;5095148;28;20341;-64
2023/06/20 07:18:38;;;;;;;;;;;12.50;85.00;;;;;;5074652;28;20003;-63
2023/06/20 07:21:05;;;;;;;;;;;12.40;85.30;;;;;;5085324;28;19919;-61
2023/06/20 07:23:34;;;;;;;;;;;12.20;86.00;;;;;;5094757;28;19908;-64
2023/06/20 07:26:01;;;;;;;;;;;12.20;86.20;;;;;;5094484;28;19922;-61
2023/06/20 07:28:28;;;;;;;;;;;12.00;86.70;;;;;;5076326;28;19912;-62
2023/06/20 07:30:55;;;;;;;;;;;12.00;87.80;;;;;;5082799;28;19912;-64
2023/06/20 07:33:22;;;;;;;;;;;11.90;87.50;;;;;;5094126;28;20312;-63
2023/06/20 07:35:49;;;;;;;;;;;11.80;87.90;;;;;;5092149;28;19921;-61
2023/06/20 07:38:15;;;;;;;;;;;11.60;88.10;;;;;;5073834;28;19965;-63
2023/06/20 07:40:42;;;;;;;;;;;11.60;89.40;;;;;;5080299;28;19916;-64
2023/06/20 07:43:08;;;;;;;;;;;11.50;89.40;;;;;;5092902;28;19920;-63
2023/06/20 07:45:36;;;;;;;;;;;11.40;90.30;;;;;;5082421;28;19912;-63
2023/06/20 07:48:03;;;;;;;;;;;11.30;90.40;;;;;;5079321;28;20023;-62
2023/06/20 07:50:30;;;;;;;;;;;11.30;90.90;;;;;;5089380;28;19916;-63
2023/06/20 07:52:57;;;;;;;;;;;11.20;91.20;;;;;;5093956;28;20397;-63
2023/06/20 07:55:23;;;;;;;;;;;11.10;91.30;;;;;;5093978;28;19916;-62
2023/06/20 07:57:53;;;;;;;;;;;11.10;91.60;;;;;;5088524;28;19918;-66
2023/06/20 08:00:20;;;;;;;;;;;11.00;91.90;;;;;;5091924;28;19931;-63
2023/06/20 08:02:47;;;;;;;;;;;10.90;91.80;;;;;;5093354;28;20444;-63
2023/06/20 08:05:13;;;;;;;;;;;10.90;91.90;;;;;;5092867;28;19934;-62
2023/06/20 08:07:40;;;;;;;;;;;10.90;92.10;;;;;;5077025;28;19999;-62
2023/06/20 08:10:10;;;;;;;;;;;10.80;92.10;;;;;;5073128;28;19991;-65
2023/06/20 08:12:37;;;;;;;;;;;10.80;91.90;;;;;;5093135;28;20741;-62
2023/06/20 08:15:04;;;;;;;;;;;10.70;92.50;;;;;;5093141;28;19912;-64
2023/06/20 08:17:32;;;;;;;;;;;10.70;92.50;;;;;;5083233;28;19912;-63
2023/06/20 08:20:06;;;;;;;;;;;10.70;92.80;;;;;;5073227;28;19913;-63
2023/06/20 08:22:33;;;;;;;;;;;10.70;93.10;;;;;;5089840;28;19922;-63
2023/06/20 08:25:00;;;;;;;;;;;10.60;93.10;;;;;;5072922;28;19916;-63
2023/06/20 08:27:26;;;;;;;;;;;10.60;93.20;;;;;;5082405;28;19973;-65
2023/06/20 08:29:53;;;;;;;;;;;10.60;93.20;;;;;;5074634;28;19909;-63
2023/06/20 08:32:20;;;;;;;;;;;10.60;92.90;;;;;;5089268;28;19919;-63
2023/06/20 08:34:49;;;;;;;;;;;10.50;93.10;;;;;;5092715;28;19961;-63
2023/06/20 08:37:21;;;;;;;;;;;10.40;93.40;;;;;;5084259;28;19948;-64
2023/06/20 08:39:48;;;;;;;;;;;10.40;93.50;;;;;;5071871;28;20003;-64
2023/06/20 08:42:15;;;;;;;;;;;10.40;94.70;;;;;;5087930;28;19920;-64
2023/06/20 08:44:42;;;;;;;;;;;10.40;95.10;;;;;;5072914;28;19966;-63
2023/06/20 08:47:09;;;;;;;;;;;10.40;95.00;;;;;;5080284;28;19931;-62
2023/06/20 08:49:35;;;;;;;;;;;10.40;95.40;;;;;;5072300;28;19948;-63
2023/06/20 08:52:03;;;;;;;;;;;10.30;95.50;;;;;;5085835;28;19999;-62
2023/06/20 08:54:32;;;;;;;;;;;10.30;95.30;;;;;;5090922;28;19931;-63
2023/06/20 08:56:59;;;;;;;;;;;10.30;95.60;;;;;;5088843;28;20014;-62
2023/06/20 08:59:26;;;;;;;;;;;10.40;95.80;;;;;;5072260;28;19999;-65
2023/06/20 09:01:53;;;;;;;;;;;10.30;95.80;;;;;;5080454;28;20458;-63
2023/06/20 09:04:19;;;;;;;;;;;10.30;95.60;;;;;;5093664;28;19939;-64
2023/06/20 09:06:49;;;;;;;;;;;10.20;95.50;;;;;;5088723;28;19974;-65
2023/06/20 09:09:17;;;;;;;;;;;10.20;95.80;;;;;;5072066;28;19909;-64
2023/06/20 09:11:48;;;;;;;;;;;10.20;95.90;;;;;;5082354;28;20369;-63
2023/06/20 09:14:15;;;;;;;;;;;10.10;95.70;;;;;;5072819;28;19909;-65
2023/06/20 09:16:42;;;;;;;;;;;10.10;96.10;;;;;;5078171;28;19916;-62
2023/06/20 09:19:09;;;;;;;;;;;10.10;96.30;;;;;;5071740;28;19909;-63
2023/06/20 09:21:39;;;;;;;;;;;10.10;96.40;;;;;;5079770;28;20389;-63
2023/06/20 09:24:07;;;;;;;;;;;10.10;96.20;;;;;;5072079;28;19912;-62
2023/06/20 09:26:34;;;;;;;;;;;10.10;96.50;;;;;;5077407;28;19923;-64
2023/06/20 09:29:08;;;;;;;;;;;10.00;96.60;;;;;;5054016;28;19958;-62
2023/06/20 09:31:45;;;;;;;;;;;10.10;96.60;;;;;;5078317;28;19923;-64
2023/06/20 09:34:12;;;;;;;;;;;10.00;96.70;;;;;;5071632;28;19916;-62
2023/06/20 09:36:42;;;;;;;;;;;10.00;96.70;;;;;;5076669;28;19919;-61
2023/06/20 09:39:22;;;;;;;;;;;10.00;97.10;;;;;;5071963;28;20611;-63
2023/06/20 09:41:49;;;;;;;;;;;10.00;97.50;;;;;;5076889;28;19967;-63
2023/06/20 09:44:17;;;;;;;;;;;9.90;97.60;;;;;;5071812;28;19927;-64
2023/06/20 09:46:44;;;;;;;;;;;9.80;98.10;;;;;;5079837;28;19920;-62
2023/06/20 09:49:14;;;;;;;;;;;9.80;98.10;;;;;;5091754;28;19912;-63
2023/06/20 09:51:50;;;;;;;;;;;9.80;98.20;;;;;;5091691;28;19951;-62
2023/06/20 09:54:23;;;;;;;;;;;9.70;98.00;;;;;;5092072;28;19919;-64
2023/06/20 09:56:52;;;;;;;;;;;9.70;98.80;;;;;;5082816;28;20446;-64
2023/06/20 09:59:20;;;;;;;;;;;9.70;98.60;;;;;;5071185;28;19912;-62
2023/06/20 10:01:48;;;;;;;;;;;9.50;98.90;;;;;;5079131;28;19970;-62
2023/06/20 10:04:15;;;;;;;;;;;9.60;99.00;;;;;;5092280;28;19930;-61
2023/06/20 10:06:42;;;;;;;;;;;9.50;99.00;;;;;;5083534;28;19916;-64
2023/06/20 10:09:10;;;;;;;;;;;9.50;99.30;;;;;;5071973;28;19931;-63
2023/06/20 10:11:37;;;;;;;;;;;9.50;99.20;;;;;;5076959;28;19923;-63
2023/06/20 10:14:04;;;;;;;;;;;9.40;99.50;;;;;;5092073;28;19908;-64
2023/06/20 10:16:31;;;;;;;;;;;9.30;99.00;;;;;;5083736;28;20015;-65
2023/06/20 10:18:58;;;;;;;;;;;9.30;98.40;;;;;;5087681;28;19930;-63
2023/06/20 10:21:45;;;;;;;;;;;9.30;98.40;;;;;;5091142;28;20013;-63
2023/06/20 10:24:12;;;;;;;;;;;9.30;98.50;;;;;;5087496;28;19978;-64
2023/06/20 10:26:38;;;;;;;;;;;9.30;98.40;;;;;;5076953;28;19930;-63
2023/06/20 10:29:05;;;;;;;;;;;9.30;98.40;;;;;;5071426;28;20380;-63
2023/06/20 10:31:51;;;;;;;;;;;9.20;97.90;;;;;;5075446;28;19919;-63
2023/06/20 10:34:38;;;;;;;;;;;9.30;97.60;;;;;;5083986;28;19955;-64
2023/06/20 10:37:38;;;;;;;;;;;9.30;97.90;;;;;;5078390;28;19912;-63
2023/06/20 10:40:10;;;;;;;;;;;9.30;97.90;;;;;;5071475;28;19920;-63
2023/06/20 10:42:39;;;;;;;;;;;9.30;97.50;;;;;;5083248;28;20399;-62
2023/06/20 10:45:25;;;;;;;;;;;9.30;97.40;;;;;;5093770;28;19951;-63
2023/06/20 10:47:53;;;;;;;;;;;9.30;97.10;;;;;;5074762;28;19923;-63
2023/06/20 10:50:20;;;;;;;;;;;9.20;96.80;;;;;;5075296;28;20292;-64
2023/06/20 10:52:47;;;;;;;;;;;9.20;97.10;;;;;;5074668;28;19916;-64
2023/06/20 10:55:23;;;;;;;;;;;9.30;96.30;;;;;;5074645;28;19912;-64
2023/06/20 10:57:51;;;;;;;;;;;9.30;95.50;;;;;;5074499;28;20413;-64
2023/06/20 11:00:18;;;;;;;;;;;9.30;95.10;;;;;;5085557;28;19908;-63
2023/06/20 11:02:47;;;;;;;;;;;9.40;95.00;;;;;;5094631;28;19956;-63
2023/06/20 11:05:13;;;;;;;;;;;9.40;94.90;;;;;;5095156;28;19915;-64
2023/06/20 11:07:58;;;;;;;;;;;9.50;94.50;;;;;;5094944;28;19916;-63
2023/06/20 11:10:28;;;;;;;;;;;9.50;94.30;;;;;;5095069;28;19908;-63
2023/06/20 11:12:55;;;;;;;;;;;9.50;94.30;;;;;;5093513;28;19915;-63
2023/06/20 11:15:23;;;;;;;;;;;9.50;94.10;;;;;;5094795;28;19962;-63
2023/06/20 11:17:50;;;;;;;;;;;9.60;94.10;;;;;;5094737;28;20341;-64
2023/06/20 11:20:17;;;;;;;;;;;9.60;94.00;;;;;;5094035;28;20380;-62
2023/06/20 11:22:48;;;;;;;;;;;9.60;93.90;;;;;;5094167;28;20273;-62
2023/06/20 11:25:22;;;;;;;;;;;9.70;93.80;;;;;;5094734;28;19908;-62
2023/06/20 11:27:48;;;;;;;;;;;9.70;94.10;;;;;;5056138;28;20372;-63
2023/06/20 11:30:15;;;;;;;;;;;9.70;94.10;;;;;;5074564;28;19908;-63
2023/06/20 11:32:57;;;;;;;;;;;9.70;94.10;;;;;;5073666;28;20290;-63
2023/06/20 11:35:24;;;;;;;;;;;9.70;94.10;;;;;;5074474;28;19991;-63
2023/06/20 11:37:51;;;;;;;;;;;9.70;94.20;;;;;;5074567;28;19909;-63
2023/06/20 11:40:17;;;;;;;;;;;9.70;93.80;;;;;;5074454;28;19954;-64
2023/06/20 11:42:44;;;;;;;;;;;9.70;93.80;;;;;;5074456;28;19940;-62
2023/06/20 11:45:11;;;;;;;;;;;9.80;94.00;;;;;;5074542;28;19908;-64
2023/06/20 11:47:37;;;;;;;;;;;9.80;94.00;;;;;;5074219;28;20010;-62
2023/06/20 11:50:04;;;;;;;;;;;9.80;94.00;;;;;;5074402;28;20388;-64
2023/06/20 11:52:33;;;;;;;;;;;9.70;93.90;;;;;;5074485;28;19984;-62
2023/06/20 11:55:00;;;;;;;;;;;9.60;93.80;;;;;;5073521;28;19944;-63
2023/06/20 11:57:28;;;;;;;;;;;9.70;93.70;;;;;;5073233;28;19952;-63
2023/06/20 11:59:55;;;;;;;;;;;9.70;93.70;;;;;;5073443;28;20344;-63
2023/06/20 12:02:25;;;;;;;;;;;9.70;93.90;;;;;;5073992;28;19947;-63
2023/06/20 12:04:58;;;;;;;;;;;9.70;93.90;;;;;;5073686;28;19908;-63
2023/06/20 12:07:26;;;;;;;;;;;9.60;93.90;;;;;;5073435;28;20016;-62
2023/06/20 12:09:52;;;;;;;;;;;9.60;94.20;;;;;;5075517;28;19912;-62
2023/06/20 12:12:20;;;;;;;;;;;9.60;93.90;;;;;;5073974;28;19944;-62
2023/06/20 12:14:51;;;;;;;;;;;9.50;93.90;;;;;;5073811;28;19969;-62
2023/06/20 12:17:18;;;;;;;;;;;9.50;94.00;;;;;;5073391;28;19920;-63
2023/06/20 12:19:52;;;;;;;;;;;9.40;94.10;;;;;;5073447;28;19963;-63
2023/06/20 12:22:19;;;;;;;;;;;9.40;94.30;;;;;;5073975;28;19908;-63
2023/06/20 12:24:46;;;;;;;;;;;9.50;94.20;;;;;;5073442;28;19913;-64
2023/06/20 12:27:12;;;;;;;;;;;9.40;94.40;;;;;;5073386;28;20399;-63
2023/06/20 12:29:39;;;;;;;;;;;9.40;94.40;;;;;;5073637;28;19909;-63
2023/06/20 12:32:06;;;;;;;;;;;9.30;94.50;;;;;;5074686;28;20001;-63
2023/06/20 12:34:32;;;;;;;;;;;9.30;94.60;;;;;;5073509;28;19999;-63
2023/06/20 12:36:59;;;;;;;;;;;9.30;94.70;;;;;;5073533;28;20000;-63
2023/06/20 12:39:25;;;;;;;;;;;9.10;94.90;;;;;;5073498;28;19952;-62
2023/06/20 12:41:52;;;;;;;;;;;9.20;94.80;;;;;;5073389;28;19921;-63
2023/06/20 12:44:19;;;;;;;;;;;9.20;94.70;;;;;;5073513;28;19975;-63
2023/06/20 12:46:45;;;;;;;;;;;9.20;94.80;;;;;;5073208;28;20285;-63
2023/06/20 12:49:12;;;;;;;;;;;9.10;94.90;;;;;;5073328;28;19908;-63
2023/06/20 12:51:39;;;;;;;;;;;9.10;95.00;;;;;;5073042;28;19908;-63
2023/06/20 12:54:05;;;;;;;;;;;9.00;95.20;;;;;;5073104;28;20007;-63
2023/06/20 12:56:32;;;;;;;;;;;9.00;95.20;;;;;;5073019;28;20288;-62
2023/06/20 12:59:00;;;;;;;;;;;8.90;95.30;;;;;;5073220;28;19913;-62
2023/06/20 13:01:26;;;;;;;;;;;8.90;95.40;;;;;;5073291;28;19912;-63
2023/06/20 13:03:53;;;;;;;;;;;8.90;95.50;;;;;;5073212;28;19915;-63
2023/06/20 13:06:21;;;;;;;;;;;8.80;95.40;;;;;;5072868;28;19912;-62
2023/06/20 13:08:48;;;;;;;;;;;8.80;95.40;;;;;;5072626;28;19908;-62
2023/06/20 13:11:14;;;;;;;;;;;8.80;95.50;;;;;;5054952;28;19908;-64
2023/06/20 13:13:41;;;;;;;;;;;8.80;95.60;;;;;;5072463;28;19920;-63
2023/06/20 13:16:08;;;;;;;;;;;8.70;95.90;;;;;;5072455;28;19905;-63
2023/06/20 13:18:34;;;;;;;;;;;8.70;95.70;;;;;;5072902;28;19915;-63
2023/06/20 13:21:01;;;;;;;;;;;8.60;95.80;;;;;;5072732;28;19919;-64
2023/06/20 13:23:27;;;;;;;;;;;8.60;96.00;;;;;;5072571;28;19938;-63
2023/06/20 13:25:54;;;;;;;;;;;8.50;96.00;;;;;;5072722;28;19909;-63
2023/06/20 13:28:21;;;;;;;;;;;8.50;96.00;;;;;;5072522;28;20002;-63
2023/06/20 13:30:48;;;;;;;;;;;8.50;96.30;;;;;;5072866;28;19969;-63
2023/06/20 13:33:16;;;;;;;;;;;8.60;96.00;;;;;;5073051;28;19943;-63
2023/06/20 13:35:42;;;;;;;;;;;8.60;96.40;;;;;;5072479;28;19916;-63
2023/06/20 13:38:10;;;;;;;;;;;8.50;96.30;;;;;;5072342;28;19909;-63
2023/06/20 13:40:37;;;;;;;;;;;8.40;96.20;;;;;;5072376;28;19948;-63
2023/06/20 13:43:06;;;;;;;;;;;8.50;96.20;;;;;;5051152;28;20298;-63
2023/06/20 13:45:33;;;;;;;;;;;8.40;96.20;;;;;;5052630;28;19909;-62
2023/06/20 13:48:00;;;;;;;;;;;8.40;96.20;;;;;;5052572;28;19963;-62
2023/06/20 13:50:27;;;;;;;;;;;8.40;96.30;;;;;;5052452;28;19915;-64
2023/06/20 13:52:54;;;;;;;;;;;8.40;96.30;;;;;;5052560;28;19955;-63
2023/06/20 13:55:20;;;;;;;;;;;8.40;96.30;;;;;;5052343;28;20391;-64
2023/06/20 13:57:47;;;;;;;;;;;8.40;96.30;;;;;;5052360;28;19962;-65
2023/06/20 14:00:14;;;;;;;;;;;8.40;96.70;;;;;;5052355;28;19970;-64
2023/06/20 14:02:41;;;;;;;;;;;8.30;96.80;;;;;;5052234;28;19913;-65
2023/06/20 14:05:08;;;;;;;;;;;8.40;96.70;;;;;;5051934;28;20299;-64
2023/06/20 14:07:35;;;;;;;;;;;8.30;96.90;;;;;;5052223;28;19917;-63
2023/06/20 14:10:02;;;;;;;;;;;8.20;97.30;;;;;;5052379;28;19925;-64
2023/06/20 14:12:28;;;;;;;;;;;8.20;97.40;;;;;;5052455;28;19916;-65
2023/06/20 14:14:55;;;;;;;;;;;8.20;97.40;;;;;;5052354;28;20004;-63
2023/06/20 14:17:22;;;;;;;;;;;8.20;97.80;;;;;;5051644;28;19982;-64
2023/06/20 14:19:48;;;;;;;;;;;8.00;97.80;;;;;;5053964;28;20426;-66
2023/06/20 14:22:16;;;;;;;;;;;8.00;98.00;;;;;;5056186;28;20008;-63
2023/06/20 14:24:43;;;;;;;;;;;7.90;98.20;;;;;;5055972;28;19908;-63
2023/06/20 14:27:09;;;;;;;;;;;7.90;98.40;;;;;;5055887;28;19936;-63